sensor_id;sensor_type;location;lat;lon;timestamp;P1;durP1;ratioP1;P2;durP2;ratioP2
23668;SDS011;12011;47.422;15.018;2022-08-19T00:00:54;3.90;;;3.80;;
23668;SDS011;12011;47.422;15.018;2022-08-19T00:03:24;3.82;;;3.78;;
23668;SDS011;12011;47.422;15.018;2022-08-19T00:05:58;3.76;;;3.70;;
23668;SDS011;12011;47.422;15.018;2022-08-19T00:08:28;3.86;;;3.79;;
23668;SDS011;12011;47.422;15.018;2022-08-19T00:10:57;3.88;;;3.74;;
23668;SDS011;12011;47.422;15.018;2022-08-19T00:13:27;3.41;;;3.31;;
23668;SDS011;12011;47.422;15.018;2022-08-19T00:15:56;3.91;;;3.79;;
23668;SDS011;12011;47.422;15.018;2022-08-19T00:18:26;3.96;;;3.85;;
23668;SDS011;12011;47.422;15.018;2022-08-19T00:20:58;3.81;;;3.75;;
23668;SDS011;12011;47.422;15.018;2022-08-19T00:23:33;3.80;;;3.80;;
23668;SDS011;12011;47.422;15.018;2022-08-19T00:26:02;3.49;;;3.49;;
23668;SDS011;12011;47.422;15.018;2022-08-19T00:28:33;3.79;;;3.79;;
23668;SDS011;12011;47.422;15.018;2022-08-19T00:31:03;3.42;;;3.42;;
23668;SDS011;12011;47.422;15.018;2022-08-19T00:33:34;3.70;;;3.70;;
23668;SDS011;12011;47.422;15.018;2022-08-19T00:36:07;3.93;;;3.93;;
23668;SDS011;12011;47.422;15.018;2022-08-19T00:38:39;3.69;;;3.69;;
23668;SDS011;12011;47.422;15.018;2022-08-19T00:41:10;3.77;;;3.77;;
23668;SDS011;12011;47.422;15.018;2022-08-19T00:43:43;4.19;;;4.19;;
23668;SDS011;12011;47.422;15.018;2022-08-19T00:46:27;4.67;;;4.67;;
23668;SDS011;12011;47.422;15.018;2022-08-19T00:48:58;5.02;;;5.02;;
23668;SDS011;12011;47.422;15.018;2022-08-19T00:51:31;5.33;;;5.33;;
23668;SDS011;12011;47.422;15.018;2022-08-19T00:54:02;5.34;;;5.34;;
23668;SDS011;12011;47.422;15.018;2022-08-19T00:56:32;5.30;;;5.27;;
23668;SDS011;12011;47.422;15.018;2022-08-19T00:59:02;5.06;;;5.06;;
23668;SDS011;12011;47.422;15.018;2022-08-19T01:01:34;4.81;;;4.81;;
23668;SDS011;12011;47.422;15.018;2022-08-19T01:04:04;4.56;;;4.54;;
23668;SDS011;12011;47.422;15.018;2022-08-19T01:06:38;4.72;;;4.71;;
23668;SDS011;12011;47.422;15.018;2022-08-19T01:09:09;4.35;;;4.35;;
23668;SDS011;12011;47.422;15.018;2022-08-19T01:11:39;4.84;;;4.84;;
23668;SDS011;12011;47.422;15.018;2022-08-19T01:14:12;4.78;;;4.78;;
23668;SDS011;12011;47.422;15.018;2022-08-19T01:16:43;5.43;;;5.43;;
23668;SDS011;12011;47.422;15.018;2022-08-19T01:19:16;5.41;;;5.40;;
23668;SDS011;12011;47.422;15.018;2022-08-19T01:21:57;5.61;;;5.61;;
23668;SDS011;12011;47.422;15.018;2022-08-19T01:24:37;5.75;;;5.75;;
23668;SDS011;12011;47.422;15.018;2022-08-19T01:27:07;6.51;;;6.51;;
23668;SDS011;12011;47.422;15.018;2022-08-19T01:29:37;7.01;;;7.01;;
23668;SDS011;12011;47.422;15.018;2022-08-19T01:32:11;7.83;;;7.83;;
23668;SDS011;12011;47.422;15.018;2022-08-19T01:34:44;8.17;;;8.17;;
23668;SDS011;12011;47.422;15.018;2022-08-19T01:37:15;8.12;;;8.12;;
23668;SDS011;12011;47.422;15.018;2022-08-19T01:39:47;8.16;;;8.16;;
23668;SDS011;12011;47.422;15.018;2022-08-19T01:42:16;8.45;;;8.45;;
23668;SDS011;12011;47.422;15.018;2022-08-19T01:44:47;8.54;;;8.54;;
23668;SDS011;12011;47.422;15.018;2022-08-19T01:47:17;9.07;;;9.07;;
23668;SDS011;12011;47.422;15.018;2022-08-19T01:49:46;9.54;;;9.54;;
23668;SDS011;12011;47.422;15.018;2022-08-19T01:52:16;9.61;;;9.61;;
23668;SDS011;12011;47.422;15.018;2022-08-19T01:54:48;9.46;;;9.46;;
23668;SDS011;12011;47.422;15.018;2022-08-19T01:57:17;9.09;;;9.09;;
23668;SDS011;12011;47.422;15.018;2022-08-19T01:59:47;9.02;;;9.02;;
23668;SDS011;12011;47.422;15.018;2022-08-19T02:02:17;8.49;;;8.49;;
23668;SDS011;12011;47.422;15.018;2022-08-19T02:04:46;7.83;;;7.83;;
23668;SDS011;12011;47.422;15.018;2022-08-19T02:07:18;7.75;;;7.75;;
23668;SDS011;12011;47.422;15.018;2022-08-19T02:09:52;7.44;;;7.41;;
23668;SDS011;12011;47.422;15.018;2022-08-19T02:12:21;8.54;;;8.54;;
23668;SDS011;12011;47.422;15.018;2022-08-19T02:14:51;8.14;;;8.14;;
23668;SDS011;12011;47.422;15.018;2022-08-19T02:17:20;6.40;;;6.40;;
23668;SDS011;12011;47.422;15.018;2022-08-19T02:19:50;6.58;;;6.58;;
23668;SDS011;12011;47.422;15.018;2022-08-19T02:22:19;6.92;;;6.92;;
23668;SDS011;12011;47.422;15.018;2022-08-19T02:24:54;5.89;;;5.89;;
23668;SDS011;12011;47.422;15.018;2022-08-19T02:27:24;6.55;;;6.55;;
23668;SDS011;12011;47.422;15.018;2022-08-19T02:29:56;6.61;;;6.61;;
23668;SDS011;12011;47.422;15.018;2022-08-19T02:32:26;6.36;;;6.36;;
23668;SDS011;12011;47.422;15.018;2022-08-19T02:34:56;6.85;;;6.85;;
23668;SDS011;12011;47.422;15.018;2022-08-19T02:37:25;6.71;;;6.71;;
23668;SDS011;12011;47.422;15.018;2022-08-19T02:40:10;6.41;;;6.41;;
23668;SDS011;12011;47.422;15.018;2022-08-19T02:42:40;7.97;;;7.97;;
23668;SDS011;12011;47.422;15.018;2022-08-19T02:45:11;8.09;;;8.09;;
23668;SDS011;12011;47.422;15.018;2022-08-19T02:47:41;9.13;;;9.13;;
23668;SDS011;12011;47.422;15.018;2022-08-19T02:50:11;10.09;;;10.09;;
23668;SDS011;12011;47.422;15.018;2022-08-19T02:52:41;10.72;;;10.64;;
23668;SDS011;12011;47.422;15.018;2022-08-19T02:55:13;10.59;;;10.59;;
23668;SDS011;12011;47.422;15.018;2022-08-19T02:57:43;10.55;;;10.53;;
23668;SDS011;12011;47.422;15.018;2022-08-19T03:00:12;10.05;;;10.03;;
23668;SDS011;12011;47.422;15.018;2022-08-19T03:02:43;9.94;;;9.94;;
23668;SDS011;12011;47.422;15.018;2022-08-19T03:05:14;9.26;;;9.26;;
23668;SDS011;12011;47.422;15.018;2022-08-19T03:07:43;9.37;;;9.37;;
23668;SDS011;12011;47.422;15.018;2022-08-19T03:10:16;9.44;;;9.44;;
23668;SDS011;12011;47.422;15.018;2022-08-19T03:12:46;9.50;;;9.50;;
23668;SDS011;12011;47.422;15.018;2022-08-19T03:15:15;9.11;;;9.11;;
23668;SDS011;12011;47.422;15.018;2022-08-19T03:17:45;8.79;;;8.79;;
23668;SDS011;12011;47.422;15.018;2022-08-19T03:20:14;7.59;;;7.59;;
23668;SDS011;12011;47.422;15.018;2022-08-19T03:22:44;7.16;;;7.16;;
23668;SDS011;12011;47.422;15.018;2022-08-19T03:25:16;6.74;;;6.74;;
23668;SDS011;12011;47.422;15.018;2022-08-19T03:27:46;6.92;;;6.92;;
23668;SDS011;12011;47.422;15.018;2022-08-19T03:30:16;7.18;;;7.18;;
23668;SDS011;12011;47.422;15.018;2022-08-19T03:32:46;8.16;;;8.16;;
23668;SDS011;12011;47.422;15.018;2022-08-19T03:35:15;7.91;;;7.91;;
23668;SDS011;12011;47.422;15.018;2022-08-19T03:37:45;8.83;;;8.80;;
23668;SDS011;12011;47.422;15.018;2022-08-19T03:40:18;11.71;;;11.62;;
23668;SDS011;12011;47.422;15.018;2022-08-19T03:42:47;12.50;;;12.47;;
23668;SDS011;12011;47.422;15.018;2022-08-19T03:45:17;13.89;;;13.88;;
23668;SDS011;12011;47.422;15.018;2022-08-19T03:47:46;14.48;;;14.47;;
23668;SDS011;12011;47.422;15.018;2022-08-19T03:50:16;14.43;;;14.42;;
23668;SDS011;12011;47.422;15.018;2022-08-19T03:52:47;13.91;;;13.91;;
23668;SDS011;12011;47.422;15.018;2022-08-19T03:55:21;13.05;;;12.96;;
23668;SDS011;12011;47.422;15.018;2022-08-19T03:57:50;12.25;;;12.24;;
23668;SDS011;12011;47.422;15.018;2022-08-19T04:00:20;13.37;;;13.28;;
23668;SDS011;12011;47.422;15.018;2022-08-19T04:02:50;17.13;;;17.03;;
23668;SDS011;12011;47.422;15.018;2022-08-19T04:05:20;15.00;;;14.98;;
23668;SDS011;12011;47.422;15.018;2022-08-19T04:07:50;16.62;;;16.55;;
23668;SDS011;12011;47.422;15.018;2022-08-19T04:10:23;11.89;;;11.79;;
23668;SDS011;12011;47.422;15.018;2022-08-19T04:12:53;10.91;;;10.87;;
23668;SDS011;12011;47.422;15.018;2022-08-19T04:15:22;10.84;;;10.84;;
23668;SDS011;12011;47.422;15.018;2022-08-19T04:17:54;7.90;;;7.90;;
23668;SDS011;12011;47.422;15.018;2022-08-19T04:20:23;7.74;;;7.74;;
23668;SDS011;12011;47.422;15.018;2022-08-19T04:22:53;10.11;;;10.11;;
23668;SDS011;12011;47.422;15.018;2022-08-19T04:25:25;10.07;;;10.07;;
23668;SDS011;12011;47.422;15.018;2022-08-19T04:27:55;9.11;;;9.09;;
23668;SDS011;12011;47.422;15.018;2022-08-19T04:30:24;7.98;;;7.98;;
23668;SDS011;12011;47.422;15.018;2022-08-19T04:32:54;8.35;;;8.35;;
23668;SDS011;12011;47.422;15.018;2022-08-19T04:35:23;8.39;;;8.39;;
23668;SDS011;12011;47.422;15.018;2022-08-19T04:37:53;8.90;;;8.90;;
23668;SDS011;12011;47.422;15.018;2022-08-19T04:40:25;8.50;;;8.50;;
23668;SDS011;12011;47.422;15.018;2022-08-19T04:43:07;8.33;;;8.33;;
23668;SDS011;12011;47.422;15.018;2022-08-19T04:45:41;8.11;;;8.11;;
23668;SDS011;12011;47.422;15.018;2022-08-19T04:48:12;8.40;;;8.40;;
23668;SDS011;12011;47.422;15.018;2022-08-19T04:50:43;8.70;;;8.70;;
23668;SDS011;12011;47.422;15.018;2022-08-19T04:53:13;7.68;;;7.68;;
23668;SDS011;12011;47.422;15.018;2022-08-19T04:55:45;6.51;;;6.51;;
23668;SDS011;12011;47.422;15.018;2022-08-19T04:58:16;6.27;;;6.27;;
23668;SDS011;12011;47.422;15.018;2022-08-19T05:00:46;7.81;;;7.81;;
23668;SDS011;12011;47.422;15.018;2022-08-19T05:03:16;7.93;;;7.93;;
23668;SDS011;12011;47.422;15.018;2022-08-19T05:05:46;7.78;;;7.78;;
23668;SDS011;12011;47.422;15.018;2022-08-19T05:08:18;7.68;;;7.68;;
23668;SDS011;12011;47.422;15.018;2022-08-19T05:10:52;7.25;;;7.25;;
23668;SDS011;12011;47.422;15.018;2022-08-19T05:13:22;7.14;;;7.14;;
23668;SDS011;12011;47.422;15.018;2022-08-19T05:15:55;7.44;;;7.44;;
23668;SDS011;12011;47.422;15.018;2022-08-19T05:18:27;7.40;;;7.40;;
23668;SDS011;12011;47.422;15.018;2022-08-19T05:21:09;7.46;;;7.46;;
23668;SDS011;12011;47.422;15.018;2022-08-19T05:23:54;8.26;;;8.26;;
23668;SDS011;12011;47.422;15.018;2022-08-19T05:26:26;8.23;;;8.23;;
23668;SDS011;12011;47.422;15.018;2022-08-19T05:28:56;8.52;;;8.52;;
23668;SDS011;12011;47.422;15.018;2022-08-19T05:31:26;8.53;;;8.53;;
23668;SDS011;12011;47.422;15.018;2022-08-19T05:33:55;8.03;;;8.03;;
23668;SDS011;12011;47.422;15.018;2022-08-19T05:36:26;8.10;;;8.10;;
23668;SDS011;12011;47.422;15.018;2022-08-19T05:38:57;7.98;;;7.98;;
23668;SDS011;12011;47.422;15.018;2022-08-19T05:41:29;8.40;;;8.40;;
23668;SDS011;12011;47.422;15.018;2022-08-19T05:44:00;7.98;;;7.98;;
23668;SDS011;12011;47.422;15.018;2022-08-19T05:46:34;7.52;;;7.51;;
23668;SDS011;12011;47.422;15.018;2022-08-19T05:49:05;7.41;;;7.41;;
23668;SDS011;12011;47.422;15.018;2022-08-19T05:51:36;7.73;;;7.73;;
23668;SDS011;12011;47.422;15.018;2022-08-19T05:54:06;8.05;;;8.05;;
23668;SDS011;12011;47.422;15.018;2022-08-19T05:56:40;7.87;;;7.87;;
23668;SDS011;12011;47.422;15.018;2022-08-19T05:59:13;7.55;;;7.54;;
23668;SDS011;12011;47.422;15.018;2022-08-19T06:01:46;7.83;;;7.81;;
23668;SDS011;12011;47.422;15.018;2022-08-19T06:04:23;7.57;;;7.57;;
23668;SDS011;12011;47.422;15.018;2022-08-19T06:07:00;7.45;;;7.45;;
23668;SDS011;12011;47.422;15.018;2022-08-19T06:09:31;7.06;;;7.06;;
23668;SDS011;12011;47.422;15.018;2022-08-19T06:12:12;7.18;;;7.18;;
23668;SDS011;12011;47.422;15.018;2022-08-19T06:14:42;6.83;;;6.83;;
23668;SDS011;12011;47.422;15.018;2022-08-19T06:17:11;6.95;;;6.95;;
23668;SDS011;12011;47.422;15.018;2022-08-19T06:19:41;8.26;;;8.26;;
23668;SDS011;12011;47.422;15.018;2022-08-19T06:22:11;10.31;;;10.31;;
23668;SDS011;12011;47.422;15.018;2022-08-19T06:24:40;9.96;;;9.96;;
23668;SDS011;12011;47.422;15.018;2022-08-19T06:27:13;8.07;;;8.07;;
23668;SDS011;12011;47.422;15.018;2022-08-19T06:29:42;8.21;;;8.21;;
23668;SDS011;12011;47.422;15.018;2022-08-19T06:32:14;7.02;;;7.02;;
23668;SDS011;12011;47.422;15.018;2022-08-19T06:34:46;7.37;;;7.37;;
23668;SDS011;12011;47.422;15.018;2022-08-19T06:37:16;8.11;;;8.11;;
23668;SDS011;12011;47.422;15.018;2022-08-19T06:39:47;8.58;;;8.58;;
23668;SDS011;12011;47.422;15.018;2022-08-19T06:42:20;8.10;;;8.10;;
23668;SDS011;12011;47.422;15.018;2022-08-19T06:44:50;7.51;;;7.51;;
23668;SDS011;12011;47.422;15.018;2022-08-19T06:47:21;7.25;;;7.25;;
23668;SDS011;12011;47.422;15.018;2022-08-19T06:49:53;7.22;;;7.22;;
23668;SDS011;12011;47.422;15.018;2022-08-19T06:52:24;6.20;;;6.20;;
23668;SDS011;12011;47.422;15.018;2022-08-19T06:54:54;7.34;;;7.34;;
23668;SDS011;12011;47.422;15.018;2022-08-19T06:57:26;7.40;;;7.40;;
23668;SDS011;12011;47.422;15.018;2022-08-19T06:59:58;6.87;;;6.87;;
23668;SDS011;12011;47.422;15.018;2022-08-19T07:02:28;7.66;;;7.66;;
23668;SDS011;12011;47.422;15.018;2022-08-19T07:04:58;6.64;;;6.64;;
23668;SDS011;12011;47.422;15.018;2022-08-19T07:07:30;7.41;;;7.41;;
23668;SDS011;12011;47.422;15.018;2022-08-19T07:10:00;7.92;;;7.92;;
23668;SDS011;12011;47.422;15.018;2022-08-19T07:12:34;7.91;;;7.91;;
23668;SDS011;12011;47.422;15.018;2022-08-19T07:15:08;7.84;;;7.84;;
23668;SDS011;12011;47.422;15.018;2022-08-19T07:17:41;8.20;;;8.20;;
23668;SDS011;12011;47.422;15.018;2022-08-19T07:20:11;8.37;;;8.37;;
23668;SDS011;12011;47.422;15.018;2022-08-19T07:22:41;8.02;;;8.02;;
23668;SDS011;12011;47.422;15.018;2022-08-19T07:25:10;8.39;;;8.39;;
23668;SDS011;12011;47.422;15.018;2022-08-19T07:27:45;8.23;;;8.23;;
23668;SDS011;12011;47.422;15.018;2022-08-19T07:30:17;7.54;;;7.54;;
23668;SDS011;12011;47.422;15.018;2022-08-19T07:32:47;6.89;;;6.89;;
23668;SDS011;12011;47.422;15.018;2022-08-19T07:35:17;6.46;;;6.46;;
23668;SDS011;12011;47.422;15.018;2022-08-19T07:37:49;5.86;;;5.86;;
23668;SDS011;12011;47.422;15.018;2022-08-19T07:40:18;5.97;;;5.97;;
23668;SDS011;12011;47.422;15.018;2022-08-19T07:42:51;6.24;;;6.24;;
23668;SDS011;12011;47.422;15.018;2022-08-19T07:45:21;6.56;;;6.56;;
23668;SDS011;12011;47.422;15.018;2022-08-19T07:47:51;5.94;;;5.94;;
23668;SDS011;12011;47.422;15.018;2022-08-19T07:50:21;5.77;;;5.77;;
23668;SDS011;12011;47.422;15.018;2022-08-19T07:52:50;5.74;;;5.74;;
23668;SDS011;12011;47.422;15.018;2022-08-19T07:55:22;5.77;;;5.77;;
23668;SDS011;12011;47.422;15.018;2022-08-19T07:57:57;6.29;;;6.29;;
23668;SDS011;12011;47.422;15.018;2022-08-19T08:00:26;5.45;;;5.45;;
23668;SDS011;12011;47.422;15.018;2022-08-19T08:02:56;5.76;;;5.76;;
23668;SDS011;12011;47.422;15.018;2022-08-19T08:05:26;6.28;;;6.28;;
23668;SDS011;12011;47.422;15.018;2022-08-19T08:08:08;6.68;;;6.68;;
23668;SDS011;12011;47.422;15.018;2022-08-19T08:10:50;6.36;;;6.36;;
23668;SDS011;12011;47.422;15.018;2022-08-19T08:13:22;5.84;;;5.84;;
23668;SDS011;12011;47.422;15.018;2022-08-19T08:15:52;6.18;;;6.18;;
23668;SDS011;12011;47.422;15.018;2022-08-19T08:18:22;4.97;;;4.97;;
23668;SDS011;12011;47.422;15.018;2022-08-19T08:20:51;4.47;;;4.47;;
23668;SDS011;12011;47.422;15.018;2022-08-19T08:23:21;5.32;;;5.32;;
23668;SDS011;12011;47.422;15.018;2022-08-19T08:25:51;6.34;;;6.34;;
23668;SDS011;12011;47.422;15.018;2022-08-19T08:28:26;6.94;;;6.94;;
23668;SDS011;12011;47.422;15.018;2022-08-19T08:30:57;6.68;;;6.68;;
23668;SDS011;12011;47.422;15.018;2022-08-19T08:33:28;7.07;;;7.07;;
23668;SDS011;12011;47.422;15.018;2022-08-19T08:35:58;6.23;;;6.23;;
23668;SDS011;12011;47.422;15.018;2022-08-19T08:38:28;5.32;;;5.32;;
23668;SDS011;12011;47.422;15.018;2022-08-19T08:40:59;5.11;;;5.11;;
23668;SDS011;12011;47.422;15.018;2022-08-19T08:43:48;4.53;;;4.53;;
23668;SDS011;12011;47.422;15.018;2022-08-19T08:46:21;3.86;;;3.86;;
23668;SDS011;12011;47.422;15.018;2022-08-19T08:49:01;4.17;;;4.17;;
23668;SDS011;12011;47.422;15.018;2022-08-19T08:51:49;4.02;;;4.02;;
23668;SDS011;12011;47.422;15.018;2022-08-19T08:54:30;3.55;;;3.55;;
23668;SDS011;12011;47.422;15.018;2022-08-19T08:57:09;3.79;;;3.79;;
23668;SDS011;12011;47.422;15.018;2022-08-19T08:59:49;3.83;;;3.83;;
23668;SDS011;12011;47.422;15.018;2022-08-19T09:02:23;3.68;;;3.68;;
23668;SDS011;12011;47.422;15.018;2022-08-19T09:04:53;3.92;;;3.92;;
23668;SDS011;12011;47.422;15.018;2022-08-19T09:07:26;3.79;;;3.79;;
23668;SDS011;12011;47.422;15.018;2022-08-19T09:10:16;4.16;;;4.16;;
23668;SDS011;12011;47.422;15.018;2022-08-19T09:13:00;4.32;;;4.32;;
23668;SDS011;12011;47.422;15.018;2022-08-19T09:15:47;4.20;;;4.20;;
23668;SDS011;12011;47.422;15.018;2022-08-19T09:18:24;4.14;;;4.14;;
23668;SDS011;12011;47.422;15.018;2022-08-19T09:20:54;4.18;;;4.18;;
23668;SDS011;12011;47.422;15.018;2022-08-19T09:23:23;4.19;;;4.19;;
23668;SDS011;12011;47.422;15.018;2022-08-19T09:25:54;3.98;;;3.98;;
23668;SDS011;12011;47.422;15.018;2022-08-19T09:28:24;4.00;;;4.00;;
23668;SDS011;12011;47.422;15.018;2022-08-19T09:30:57;3.69;;;3.69;;
23668;SDS011;12011;47.422;15.018;2022-08-19T09:33:26;3.61;;;3.61;;
23668;SDS011;12011;47.422;15.018;2022-08-19T09:36:03;3.27;;;3.27;;
23668;SDS011;12011;47.422;15.018;2022-08-19T09:38:36;3.63;;;3.63;;
23668;SDS011;12011;47.422;15.018;2022-08-19T09:41:07;3.35;;;3.35;;
23668;SDS011;12011;47.422;15.018;2022-08-19T09:43:40;3.62;;;3.62;;
23668;SDS011;12011;47.422;15.018;2022-08-19T09:46:16;3.51;;;3.51;;
23668;SDS011;12011;47.422;15.018;2022-08-19T09:48:47;3.31;;;3.31;;
23668;SDS011;12011;47.422;15.018;2022-08-19T09:51:19;3.52;;;3.52;;
23668;SDS011;12011;47.422;15.018;2022-08-19T09:53:53;3.56;;;3.56;;
23668;SDS011;12011;47.422;15.018;2022-08-19T09:56:27;3.70;;;3.70;;
23668;SDS011;12011;47.422;15.018;2022-08-19T09:58:58;3.45;;;3.45;;
23668;SDS011;12011;47.422;15.018;2022-08-19T10:01:31;3.48;;;3.47;;
23668;SDS011;12011;47.422;15.018;2022-08-19T10:04:01;3.88;;;3.87;;
23668;SDS011;12011;47.422;15.018;2022-08-19T10:06:34;3.86;;;3.86;;
23668;SDS011;12011;47.422;15.018;2022-08-19T10:09:08;4.64;;;4.64;;
23668;SDS011;12011;47.422;15.018;2022-08-19T10:11:39;4.57;;;4.57;;
23668;SDS011;12011;47.422;15.018;2022-08-19T10:14:15;4.57;;;4.57;;
23668;SDS011;12011;47.422;15.018;2022-08-19T10:16:50;4.42;;;4.42;;
23668;SDS011;12011;47.422;15.018;2022-08-19T10:19:20;4.50;;;4.50;;
23668;SDS011;12011;47.422;15.018;2022-08-19T10:21:50;5.13;;;5.13;;
23668;SDS011;12011;47.422;15.018;2022-08-19T10:24:19;5.32;;;5.32;;
23668;SDS011;12011;47.422;15.018;2022-08-19T10:26:49;4.98;;;4.98;;
23668;SDS011;12011;47.422;15.018;2022-08-19T10:29:19;4.66;;;4.66;;
23668;SDS011;12011;47.422;15.018;2022-08-19T10:31:51;4.77;;;4.77;;
23668;SDS011;12011;47.422;15.018;2022-08-19T10:34:21;4.83;;;4.83;;
23668;SDS011;12011;47.422;15.018;2022-08-19T10:36:51;4.67;;;4.67;;
23668;SDS011;12011;47.422;15.018;2022-08-19T10:39:21;5.11;;;5.11;;
23668;SDS011;12011;47.422;15.018;2022-08-19T10:41:51;5.10;;;5.10;;
23668;SDS011;12011;47.422;15.018;2022-08-19T10:44:22;4.89;;;4.89;;
23668;SDS011;12011;47.422;15.018;2022-08-19T10:46:56;4.99;;;4.99;;
23668;SDS011;12011;47.422;15.018;2022-08-19T10:49:26;4.74;;;4.74;;
23668;SDS011;12011;47.422;15.018;2022-08-19T10:51:57;4.43;;;4.43;;
23668;SDS011;12011;47.422;15.018;2022-08-19T10:54:39;4.46;;;4.46;;
23668;SDS011;12011;47.422;15.018;2022-08-19T10:57:22;4.75;;;4.75;;
23668;SDS011;12011;47.422;15.018;2022-08-19T10:59:55;5.03;;;5.03;;
23668;SDS011;12011;47.422;15.018;2022-08-19T11:02:28;4.72;;;4.72;;
23668;SDS011;12011;47.422;15.018;2022-08-19T11:04:58;4.84;;;4.84;;
23668;SDS011;12011;47.422;15.018;2022-08-19T11:07:28;4.65;;;4.65;;
23668;SDS011;12011;47.422;15.018;2022-08-19T11:09:57;4.62;;;4.62;;
23668;SDS011;12011;47.422;15.018;2022-08-19T11:12:28;5.07;;;5.07;;
23668;SDS011;12011;47.422;15.018;2022-08-19T11:14:58;4.70;;;4.70;;
23668;SDS011;12011;47.422;15.018;2022-08-19T11:17:31;4.55;;;4.55;;
23668;SDS011;12011;47.422;15.018;2022-08-19T11:20:01;4.25;;;4.25;;
23668;SDS011;12011;47.422;15.018;2022-08-19T11:22:32;4.69;;;4.69;;
23668;SDS011;12011;47.422;15.018;2022-08-19T11:25:02;4.47;;;4.47;;
23668;SDS011;12011;47.422;15.018;2022-08-19T11:27:32;4.41;;;4.41;;
23668;SDS011;12011;47.422;15.018;2022-08-19T11:30:02;5.01;;;5.00;;
23668;SDS011;12011;47.422;15.018;2022-08-19T11:32:37;4.78;;;4.78;;
23668;SDS011;12011;47.422;15.018;2022-08-19T11:35:07;18.34;;;14.31;;
23668;SDS011;12011;47.422;15.018;2022-08-19T11:37:37;6.25;;;5.41;;
23668;SDS011;12011;47.422;15.018;2022-08-19T11:40:07;5.23;;;5.14;;
23668;SDS011;12011;47.422;15.018;2022-08-19T11:42:39;6.14;;;6.13;;
23668;SDS011;12011;47.422;15.018;2022-08-19T11:45:24;6.11;;;5.82;;
23668;SDS011;12011;47.422;15.018;2022-08-19T11:47:57;6.32;;;5.92;;
23668;SDS011;12011;47.422;15.018;2022-08-19T11:50:27;26.40;;;18.35;;
23668;SDS011;12011;47.422;15.018;2022-08-19T11:53:05;11.68;;;8.26;;
23668;SDS011;12011;47.422;15.018;2022-08-19T11:55:39;5.12;;;4.69;;
23668;SDS011;12011;47.422;15.018;2022-08-19T11:58:11;4.29;;;4.29;;
23668;SDS011;12011;47.422;15.018;2022-08-19T12:00:47;4.68;;;4.68;;
23668;SDS011;12011;47.422;15.018;2022-08-19T12:03:19;4.42;;;4.42;;
23668;SDS011;12011;47.422;15.018;2022-08-19T12:05:57;4.55;;;4.55;;
23668;SDS011;12011;47.422;15.018;2022-08-19T12:08:26;4.19;;;4.19;;
23668;SDS011;12011;47.422;15.018;2022-08-19T12:10:56;4.39;;;4.39;;
23668;SDS011;12011;47.422;15.018;2022-08-19T12:13:26;4.15;;;4.15;;
23668;SDS011;12011;47.422;15.018;2022-08-19T12:15:56;4.11;;;4.11;;
23668;SDS011;12011;47.422;15.018;2022-08-19T12:18:29;4.32;;;4.31;;
23668;SDS011;12011;47.422;15.018;2022-08-19T12:20:59;4.42;;;4.42;;
23668;SDS011;12011;47.422;15.018;2022-08-19T12:23:29;4.05;;;4.05;;
23668;SDS011;12011;47.422;15.018;2022-08-19T12:25:58;4.31;;;4.31;;
23668;SDS011;12011;47.422;15.018;2022-08-19T12:28:28;4.06;;;4.06;;
23668;SDS011;12011;47.422;15.018;2022-08-19T12:30:59;3.89;;;3.89;;
23668;SDS011;12011;47.422;15.018;2022-08-19T12:33:31;3.99;;;3.99;;
23668;SDS011;12011;47.422;15.018;2022-08-19T12:36:02;3.92;;;3.92;;
23668;SDS011;12011;47.422;15.018;2022-08-19T12:38:35;3.91;;;3.91;;
23668;SDS011;12011;47.422;15.018;2022-08-19T12:41:09;4.14;;;4.14;;
23668;SDS011;12011;47.422;15.018;2022-08-19T12:43:43;3.83;;;3.83;;
23668;SDS011;12011;47.422;15.018;2022-08-19T12:46:15;3.63;;;3.63;;
23668;SDS011;12011;47.422;15.018;2022-08-19T12:48:53;3.76;;;3.76;;
23668;SDS011;12011;47.422;15.018;2022-08-19T12:51:25;3.91;;;3.91;;
23668;SDS011;12011;47.422;15.018;2022-08-19T12:53:57;3.95;;;3.95;;
23668;SDS011;12011;47.422;15.018;2022-08-19T12:56:36;4.02;;;4.01;;
23668;SDS011;12011;47.422;15.018;2022-08-19T12:59:16;4.00;;;3.85;;
23668;SDS011;12011;47.422;15.018;2022-08-19T13:01:47;4.44;;;4.17;;
23668;SDS011;12011;47.422;15.018;2022-08-19T13:04:19;4.39;;;4.09;;
23668;SDS011;12011;47.422;15.018;2022-08-19T13:06:48;4.96;;;4.75;;
23668;SDS011;12011;47.422;15.018;2022-08-19T13:09:18;4.60;;;4.40;;
23668;SDS011;12011;47.422;15.018;2022-08-19T13:11:48;4.76;;;4.50;;
23668;SDS011;12011;47.422;15.018;2022-08-19T13:14:19;4.46;;;4.18;;
23668;SDS011;12011;47.422;15.018;2022-08-19T13:16:53;4.16;;;3.84;;
23668;SDS011;12011;47.422;15.018;2022-08-19T13:19:28;4.37;;;3.95;;
23668;SDS011;12011;47.422;15.018;2022-08-19T13:21:58;4.39;;;3.82;;
23668;SDS011;12011;47.422;15.018;2022-08-19T13:24:36;4.75;;;4.21;;
23668;SDS011;12011;47.422;15.018;2022-08-19T13:27:06;4.38;;;3.94;;
23668;SDS011;12011;47.422;15.018;2022-08-19T13:29:39;5.09;;;4.48;;
23668;SDS011;12011;47.422;15.018;2022-08-19T13:32:21;4.57;;;3.99;;
23668;SDS011;12011;47.422;15.018;2022-08-19T13:35:06;4.87;;;4.18;;
23668;SDS011;12011;47.422;15.018;2022-08-19T13:37:37;4.69;;;4.17;;
23668;SDS011;12011;47.422;15.018;2022-08-19T13:40:12;4.27;;;3.80;;
23668;SDS011;12011;47.422;15.018;2022-08-19T13:42:50;4.66;;;4.10;;
23668;SDS011;12011;47.422;15.018;2022-08-19T13:45:24;4.30;;;3.80;;
23668;SDS011;12011;47.422;15.018;2022-08-19T13:47:59;4.54;;;4.10;;
23668;SDS011;12011;47.422;15.018;2022-08-19T13:50:41;4.16;;;3.75;;
23668;SDS011;12011;47.422;15.018;2022-08-19T13:53:18;4.41;;;3.95;;
23668;SDS011;12011;47.422;15.018;2022-08-19T13:55:56;5.35;;;4.62;;
23668;SDS011;12011;47.422;15.018;2022-08-19T13:58:25;4.41;;;3.84;;
23668;SDS011;12011;47.422;15.018;2022-08-19T14:00:57;4.16;;;3.74;;
23668;SDS011;12011;47.422;15.018;2022-08-19T14:03:27;4.35;;;3.92;;
23668;SDS011;12011;47.422;15.018;2022-08-19T14:06:03;4.18;;;3.76;;
23668;SDS011;12011;47.422;15.018;2022-08-19T14:08:38;4.58;;;4.10;;
23668;SDS011;12011;47.422;15.018;2022-08-19T14:11:09;4.55;;;4.04;;
23668;SDS011;12011;47.422;15.018;2022-08-19T14:13:42;4.69;;;4.07;;
23668;SDS011;12011;47.422;15.018;2022-08-19T14:16:12;4.51;;;3.89;;
23668;SDS011;12011;47.422;15.018;2022-08-19T14:18:44;4.34;;;3.78;;
23668;SDS011;12011;47.422;15.018;2022-08-19T14:21:20;4.43;;;3.94;;
23668;SDS011;12011;47.422;15.018;2022-08-19T14:23:51;4.65;;;4.19;;
23668;SDS011;12011;47.422;15.018;2022-08-19T14:26:23;4.52;;;4.03;;
23668;SDS011;12011;47.422;15.018;2022-08-19T14:28:54;4.46;;;3.96;;
23668;SDS011;12011;47.422;15.018;2022-08-19T14:31:24;4.95;;;4.28;;
23668;SDS011;12011;47.422;15.018;2022-08-19T14:33:55;4.48;;;3.89;;
23668;SDS011;12011;47.422;15.018;2022-08-19T14:36:28;4.37;;;3.83;;
23668;SDS011;12011;47.422;15.018;2022-08-19T14:38:59;5.22;;;4.44;;
23668;SDS011;12011;47.422;15.018;2022-08-19T14:41:31;5.14;;;4.30;;
23668;SDS011;12011;47.422;15.018;2022-08-19T14:44:01;4.76;;;3.97;;
23668;SDS011;12011;47.422;15.018;2022-08-19T14:46:31;4.83;;;4.01;;
23668;SDS011;12011;47.422;15.018;2022-08-19T14:49:01;4.73;;;3.92;;
23668;SDS011;12011;47.422;15.018;2022-08-19T14:51:46;4.92;;;4.13;;
23668;SDS011;12011;47.422;15.018;2022-08-19T14:54:16;5.01;;;4.23;;
23668;SDS011;12011;47.422;15.018;2022-08-19T14:56:46;4.47;;;3.80;;
23668;SDS011;12011;47.422;15.018;2022-08-19T14:59:16;4.23;;;3.72;;
23668;SDS011;12011;47.422;15.018;2022-08-19T15:01:49;4.27;;;3.73;;